Time;durP1;ratioP1;P1;durP2;ratioP2;P2;SDS_P1;SDS_P2;PMS_P1;PMS_P2;Temp;Humidity;BMP_temperature;BMP_pressure;BME280_temperature;BME280_humidity;BME280_pressure;Samples;Min_cycle;Max_cycle;Signal;HPM_P1;HPM_P2
2024/04/03 00:02:10;;;;;;;;;;;;;;;17.41;54.67;100482.38;5062826;28;1969;-48
2024/04/03 00:04:37;;;;;;;;;;;;;;;16.88;55.50;100485.69;5073686;28;1134;-49
2024/04/03 00:07:03;;;;;;;;;;;;;;;16.60;55.89;100485.25;5063161;28;1174;-47
2024/04/03 00:09:29;;;;;;;;;;;;;;;16.42;55.71;100494.91;5067674;28;1118;-50
2024/04/03 00:11:54;;;;;;;;;;;;;;;16.33;55.53;100502.09;5071291;28;1008;-51
2024/04/03 00:14:20;;;;;;;;;;;;;;;16.23;55.42;100513.94;5068128;28;1055;-52
2024/04/03 00:16:45;;;;;;;;;;;;;;;16.83;55.83;100527.72;5064407;28;1103;-51
2024/04/03 00:19:10;;;;;;;;;;;;;;;17.89;53.59;100536.69;5059142;28;1075;-51
2024/04/03 00:21:36;;;;;;;;;;;;;;;17.09;55.21;100535.88;5075083;28;1976;-51
2024/04/03 00:24:02;;;;;;;;;;;;;;;16.73;55.59;100541.47;5072288;28;1091;-50
2024/04/03 00:26:27;;;;;;;;;;;;;;;16.52;55.49;100527.00;5073362;28;928;-51
2024/04/03 00:28:53;;;;;;;;;;;;;;;16.43;55.67;100535.81;5060754;28;1135;-53
2024/04/03 00:31:18;;;;;;;;;;;;;;;16.30;55.62;100541.88;5061551;28;1195;-52
2024/04/03 00:33:45;;;;;;;;;;;;;;;16.21;55.46;100538.06;5072182;28;1083;-56
2024/04/03 00:36:10;;;;;;;;;;;;;;;16.88;55.77;100541.44;5061460;28;1127;-53
2024/04/03 00:38:36;;;;;;;;;;;;;;;17.76;53.74;100529.94;5072606;28;1090;-49
2024/04/03 00:41:01;;;;;;;;;;;;;;;17.05;55.04;100529.28;5067051;28;1123;-51
2024/04/03 00:43:27;;;;;;;;;;;;;;;16.71;55.25;100539.00;5079967;28;1905;-50
2024/04/03 00:45:53;;;;;;;;;;;;;;;16.49;55.44;100544.03;5066160;28;1117;-50
2024/04/03 00:48:19;;;;;;;;;;;;;;;16.39;55.25;100551.19;5049430;28;1048;-51
2024/04/03 00:50:44;;;;;;;;;;;;;;;16.18;55.51;100553.13;5079564;28;1111;-49
2024/04/03 00:53:10;;;;;;;;;;;;;;;16.13;55.59;100547.69;5042729;28;893;-47
2024/04/03 00:55:36;;;;;;;;;;;;;;;17.24;55.03;100555.00;5059913;28;1049;-45
2024/04/03 00:58:02;;;;;;;;;;;;;;;17.55;53.93;100570.50;5066893;28;1135;-47
2024/04/03 01:00:27;;;;;;;;;;;;;;;16.88;55.47;100590.03;5066333;28;1242;-50
2024/04/03 01:02:53;;;;;;;;;;;;;;;16.59;55.75;100604.38;5072236;28;1906;-49
2024/04/03 01:05:18;;;;;;;;;;;;;;;16.39;55.48;100606.06;5065390;28;1084;-48
2024/04/03 01:07:44;;;;;;;;;;;;;;;16.25;55.66;100594.00;5079294;28;1142;-50
2024/04/03 01:10:09;;;;;;;;;;;;;;;16.15;55.50;100594.03;5079039;28;1113;-50
2024/04/03 01:12:35;;;;;;;;;;;;;;;17.08;55.36;100592.75;5066184;28;1122;-52
2024/04/03 01:15:00;;;;;;;;;;;;;;;17.64;53.58;100589.97;5061540;28;1079;-52
2024/04/03 01:17:26;;;;;;;;;;;;;;;16.86;55.24;100601.31;5070095;28;968;-49
2024/04/03 01:19:51;;;;;;;;;;;;;;;16.60;55.51;100614.28;5059255;28;1202;-53
2024/04/03 01:22:17;;;;;;;;;;;;;;;16.49;55.44;100624.44;5066456;28;2036;-51
2024/04/03 01:24:42;;;;;;;;;;;;;;;16.32;55.44;100643.13;5065852;28;1138;-52
2024/04/03 01:27:08;;;;;;;;;;;;;;;16.22;55.29;100644.78;5078650;28;1059;-54
2024/04/03 01:29:33;;;;;;;;;;;;;;;16.87;55.76;100654.28;5069409;28;1102;-46
2024/04/03 01:31:59;;;;;;;;;;;;;;;17.78;53.35;100663.31;5065400;28;1150;-46
2024/04/03 01:34:24;;;;;;;;;;;;;;;17.00;55.14;100670.25;5065647;28;1062;-48
2024/04/03 01:36:50;;;;;;;;;;;;;;;16.63;55.36;100673.31;5065140;28;1051;-47
2024/04/03 01:39:16;;;;;;;;;;;;;;;16.45;55.61;100669.19;5065960;28;1042;-49
2024/04/03 01:41:42;;;;;;;;;;;;;;;16.28;55.68;100667.53;5061949;28;1918;-48
2024/04/03 01:44:07;;;;;;;;;;;;;;;16.15;55.48;100660.69;5071364;28;1088;-47
2024/04/03 01:46:33;;;;;;;;;;;;;;;16.82;55.62;100668.06;5078258;28;1122;-52
2024/04/03 01:48:58;;;;;;;;;;;;;;;17.78;53.50;100652.31;5078649;28;1106;-50
2024/04/03 01:51:24;;;;;;;;;;;;;;;16.84;55.28;100635.63;5065017;28;1166;-47
2024/04/03 01:53:49;;;;;;;;;;;;;;;16.56;55.77;100636.00;5068862;28;1121;-47
2024/04/03 01:56:15;;;;;;;;;;;;;;;16.42;55.43;100643.13;5077285;28;1076;-50
2024/04/03 01:58:42;;;;;;;;;;;;;;;16.26;55.56;100628.59;5078385;28;1071;-50
2024/04/03 02:01:07;;;;;;;;;;;;;;;16.19;55.45;100639.03;5059617;28;1559;-51
2024/04/03 02:03:32;;;;;;;;;;;;;;;16.22;55.74;100642.03;5058629;28;1909;-47
2024/04/03 02:05:58;;;;;;;;;;;;;;;17.58;53.85;100653.22;5072361;28;1175;-53
2024/04/03 02:08:24;;;;;;;;;;;;;;;17.30;54.16;100646.50;5065925;28;1170;-53
2024/04/03 02:10:49;;;;;;;;;;;;;;;16.77;55.19;100639.50;5057932;28;1051;-48
2024/04/03 02:13:15;;;;;;;;;;;;;;;16.54;55.35;100642.84;5070546;28;1052;-47
2024/04/03 02:15:40;;;;;;;;;;;;;;;16.31;55.62;100650.53;5064962;28;1151;-46
2024/04/03 02:18:06;;;;;;;;;;;;;;;16.19;55.71;100659.03;5076155;28;1163;-48
2024/04/03 02:20:32;;;;;;;;;;;;;;;16.13;55.44;100645.59;5077964;28;1051;-52
2024/04/03 02:22:58;;;;;;;;;;;;;;;17.53;53.99;100650.53;5065997;28;1979;-52
2024/04/03 02:25:23;;;;;;;;;;;;;;;17.25;54.23;100649.25;5063397;28;1055;-48
2024/04/03 02:27:49;;;;;;;;;;;;;;;16.74;55.53;100656.53;5065981;28;1023;-52
2024/04/03 02:30:14;;;;;;;;;;;;;;;16.50;55.57;100648.06;5070811;28;1238;-52
2024/04/03 02:32:40;;;;;;;;;;;;;;;16.33;55.52;100644.78;5078081;28;1119;-50
2024/04/03 02:35:05;;;;;;;;;;;;;;;16.32;55.28;100645.88;5059661;28;1155;-46
2024/04/03 02:37:31;;;;;;;;;;;;;;;16.21;55.84;100656.03;5069480;28;1115;-50
2024/04/03 02:39:56;;;;;;;;;;;;;;;17.64;53.81;100659.50;5072584;28;1055;-50
2024/04/03 02:42:23;;;;;;;;;;;;;;;17.41;54.06;100669.28;5066807;28;1902;-46
2024/04/03 02:44:48;;;;;;;;;;;;;;;16.84;55.11;100665.84;5077523;28;1074;-47
2024/04/03 02:47:14;;;;;;;;;;;;;;;16.51;55.70;100668.91;5066137;28;1170;-48
2024/04/03 02:49:39;;;;;;;;;;;;;;;16.43;55.15;100670.28;5076286;28;1118;-49
2024/04/03 02:52:05;;;;;;;;;;;;;;;16.28;55.35;100675.78;5077730;28;1070;-47
2024/04/03 02:54:31;;;;;;;;;;;;;;;16.22;55.19;100668.66;5070714;28;1097;-45
2024/04/03 02:56:56;;;;;;;;;;;;;;;16.13;55.54;100671.13;5065986;28;1111;-48
2024/04/03 02:59:22;;;;;;;;;;;;;;;17.44;54.40;100677.75;5070586;28;1071;-47
2024/04/03 03:01:47;;;;;;;;;;;;;;;17.42;54.04;100676.41;5068676;28;1996;-48
2024/04/03 03:04:13;;;;;;;;;;;;;;;16.80;55.39;100678.50;5076622;28;1455;-46
2024/04/03 03:06:38;;;;;;;;;;;;;;;16.54;55.58;100676.59;5076714;28;1115;-46
2024/04/03 03:09:04;;;;;;;;;;;;;;;16.40;55.33;100686.50;5072152;28;1015;-49
2024/04/03 03:11:29;;;;;;;;;;;;;;;16.29;55.45;100682.91;5068685;28;1076;-49
2024/04/03 03:13:55;;;;;;;;;;;;;;;16.14;55.42;100686.47;5077069;28;1268;-48
2024/04/03 03:16:21;;;;;;;;;;;;;;;17.32;54.69;100698.44;5077062;28;1086;-50
2024/04/03 03:18:46;;;;;;;;;;;;;;;17.39;53.83;100704.44;5071014;28;1163;-47
2024/04/03 03:21:12;;;;;;;;;;;;;;;16.75;55.24;100701.28;5076986;28;1162;-45
2024/04/03 03:23:37;;;;;;;;;;;;;;;16.53;55.38;100701.59;5077323;28;1911;-49
2024/04/03 03:26:03;;;;;;;;;;;;;;;16.29;55.61;100699.38;5076562;28;1118;-47
2024/04/03 03:28:28;;;;;;;;;;;;;;;16.24;55.12;100697.47;5075793;28;1034;-49
2024/04/03 03:30:54;;;;;;;;;;;;;;;16.12;55.48;100704.28;5075367;28;907;-50
2024/04/03 03:33:20;;;;;;;;;;;;;;;17.26;54.65;100703.13;5063550;28;1171;-48
2024/04/03 03:35:50;;;;;;;;;;;;;;;17.55;53.58;100707.97;5066106;28;1130;-46
2024/04/03 03:38:15;;;;;;;;;;;;;;;16.84;55.00;100709.78;5074391;28;1083;-49
2024/04/03 03:40:40;;;;;;;;;;;;;;;16.55;55.32;100702.13;5076303;28;1062;-54
2024/04/03 03:43:06;;;;;;;;;;;;;;;16.38;55.49;100708.72;5058930;28;1905;-49
2024/04/03 03:45:32;;;;;;;;;;;;;;;16.21;55.41;100719.13;5056390;28;1083;-48
2024/04/03 03:47:57;;;;;;;;;;;;;;;16.15;55.29;100720.22;5070231;28;1179;-48
2024/04/03 03:53:06;;;;;;;;;;;;;;;17.78;53.03;100742.22;5062582;28;1067;-56
2024/04/03 03:55:32;;;;;;;;;;;;;;;16.87;55.08;100743.03;5073664;28;828;-48
2024/04/03 03:57:57;;;;;;;;;;;;;;;16.54;55.48;100747.16;5069791;28;1134;-51
2024/04/03 04:00:23;;;;;;;;;;;;;;;16.36;55.51;100764.97;5056513;28;1162;-49
2024/04/03 04:02:52;;;;;;;;;;;;;;;16.27;55.41;100755.63;5042756;28;1974;-52
2024/04/03 04:05:19;;;;;;;;;;;;;;;16.12;55.50;100759.16;5056709;28;1115;-51
2024/04/03 04:07:45;;;;;;;;;;;;;;;17.19;55.54;100763.06;5058611;28;905;-48
2024/04/03 04:10:11;;;;;;;;;;;;;;;17.00;55.05;100755.41;5056488;28;1059;-47
2024/04/03 04:12:36;;;;;;;;;;;;;;;16.40;54.01;100760.59;5068955;28;1218;-51
2024/04/03 04:15:02;;;;;;;;;;;;;;;16.24;52.36;100759.72;5056328;28;1004;-48
2024/04/03 04:17:28;;;;;;;;;;;;;;;16.03;51.67;100762.44;5069245;28;1047;-51
2024/04/03 04:19:53;;;;;;;;;;;;;;;16.72;53.01;100765.00;5059309;28;937;-50
2024/04/03 04:22:19;;;;;;;;;;;;;;;16.61;53.58;100766.91;5075697;28;1990;-52
2024/04/03 04:24:45;;;;;;;;;;;;;;;16.21;52.30;100776.72;5076173;28;1106;-51
2024/04/03 04:27:10;;;;;;;;;;;;;;;16.24;52.24;100763.31;5042462;28;940;-54
2024/04/03 04:29:36;;;;;;;;;;;;;;;17.01;53.28;100762.53;5055513;28;1008;-57
2024/04/03 04:32:03;;;;;;;;;;;;;;;16.45;52.30;100748.78;5060124;28;865;-56
2024/04/03 04:34:28;;;;;;;;;;;;;;;16.23;50.79;100769.06;5049286;28;1111;-55
2024/04/03 04:36:54;;;;;;;;;;;;;;;17.28;52.03;100758.66;5062678;28;1088;-54
2024/04/03 04:39:19;;;;;;;;;;;;;;;16.62;52.08;100759.50;5061948;28;1147;-54
2024/04/03 04:41:51;;;;;;;;;;;;;;;16.29;50.86;100759.75;5062446;28;2006;-54
2024/04/03 04:44:17;;;;;;;;;;;;;;;16.57;50.65;100754.84;5056977;28;897;-49
2024/04/03 04:46:43;;;;;;;;;;;;;;;16.53;50.96;100756.47;5067985;28;1125;-55
2024/04/03 04:49:08;;;;;;;;;;;;;;;16.23;50.26;100761.66;5069937;28;1048;-56
2024/04/03 04:51:34;;;;;;;;;;;;;;;16.54;49.94;100760.88;5067985;28;1127;-57
2024/04/03 04:53:59;;;;;;;;;;;;;;;16.95;51.11;100765.56;5069200;28;1111;-50
2024/04/03 04:56:26;;;;;;;;;;;;;;;16.51;50.31;100772.38;5060896;28;839;-56
2024/04/03 04:58:51;;;;;;;;;;;;;;;16.34;49.26;100773.47;5075399;28;1137;-49
2024/04/03 05:01:17;;;;;;;;;;;;;;;17.28;50.71;100767.69;5068416;28;1063;-54
2024/04/03 05:03:42;;;;;;;;;;;;;;;16.73;50.59;100763.88;5055275;28;1909;-55
2024/04/03 05:06:13;;;;;;;;;;;;;;;16.36;50.03;100778.69;5044371;28;1040;-57
2024/04/03 05:08:39;;;;;;;;;;;;;;;16.28;48.60;100774.56;5054006;28;989;-60
2024/04/03 05:11:04;;;;;;;;;;;;;;;17.42;49.87;100789.13;5078863;28;975;-55
2024/04/03 05:13:32;;;;;;;;;;;;;;;16.58;50.42;100787.50;5078290;28;1070;-57
2024/04/03 05:16:03;;;;;;;;;;;;;;;16.36;49.55;100781.44;5065862;28;1075;-58
2024/04/03 05:18:29;;;;;;;;;;;;;;;16.27;48.52;100785.81;5077879;28;1102;-55
2024/04/03 05:20:54;;;;;;;;;;;;;;;16.41;48.44;100798.75;5071103;28;1075;-52
2024/04/03 05:23:20;;;;;;;;;;;;;;;16.95;49.97;100804.84;5060003;28;1905;-56
2024/04/03 05:25:45;;;;;;;;;;;;;;;16.41;49.47;100806.97;5078722;28;1019;-56
2024/04/03 05:28:11;;;;;;;;;;;;;;;16.30;48.58;100805.31;5065508;28;1123;-53
2024/04/03 05:30:37;;;;;;;;;;;;;;;16.18;47.59;100812.94;5073271;28;1209;-56
2024/04/03 05:33:03;;;;;;;;;;;;;;;16.11;47.03;100812.38;5063703;28;1122;-54
2024/04/03 05:35:28;;;;;;;;;;;;;;;17.21;48.65;100818.56;5051148;28;1119;-57
2024/04/03 05:37:54;;;;;;;;;;;;;;;16.76;49.98;100829.25;5041459;28;1221;-57
2024/04/03 05:40:19;;;;;;;;;;;;;;;16.50;49.21;100831.97;5047192;28;1079;-58
2024/04/03 05:42:45;;;;;;;;;;;;;;;16.29;48.37;100827.53;5059220;28;1905;-57
2024/04/03 05:45:10;;;;;;;;;;;;;;;16.77;48.93;100834.47;5058044;28;1423;-59
2024/04/03 05:47:36;;;;;;;;;;;;;;;16.98;49.70;100831.75;5057166;28;1427;-54
2024/04/03 05:50:07;;;;;;;;;;;;;;;16.54;49.28;100837.75;5045624;28;1407;-57
2024/04/03 05:52:33;;;;;;;;;;;;;;;17.66;49.48;100843.50;5044859;28;1107;-57
2024/04/03 05:54:58;;;;;;;;;;;;;;;16.98;50.34;100840.00;5063696;28;1206;-57
2024/04/03 05:57:24;;;;;;;;;;;;;;;16.70;49.27;100841.31;5039043;28;1379;-57
2024/04/03 05:59:50;;;;;;;;;;;;;;;16.53;48.51;100849.81;5055146;28;1091;-58
2024/04/03 06:02:15;;;;;;;;;;;;;;;16.46;47.92;100846.50;5070664;28;1980;-57
2024/04/03 06:04:41;;;;;;;;;;;;;;;16.33;47.68;100848.66;5064061;28;1528;-56
2024/04/03 06:07:06;;;;;;;;;;;;;;;17.77;49.34;100840.41;5052009;28;1293;-55
2024/04/03 06:09:32;;;;;;;;;;;;;;;16.94;50.06;100858.13;5057807;28;1163;-56
2024/04/03 06:11:57;;;;;;;;;;;;;;;16.61;49.33;100852.03;5056303;28;1348;-56
2024/04/03 06:14:23;;;;;;;;;;;;;;;16.45;48.65;100856.63;5056215;28;1059;-53
2024/04/03 06:16:48;;;;;;;;;;;;;;;17.44;49.30;100855.63;5066832;28;1143;-56
2024/04/03 06:19:15;;;;;;;;;;;;;;;17.02;49.79;100854.81;5059449;28;1337;-56
2024/04/03 06:21:43;;;;;;;;;;;;;;;16.70;49.22;100863.28;5062612;28;1052;-57
2024/04/03 06:24:09;;;;;;;;;;;;;;;17.87;49.49;100863.50;5055293;28;1103;-56
2024/04/03 06:26:34;;;;;;;;;;;;;;;17.04;49.94;100863.63;5042661;28;1119;-56
2024/04/03 06:29:00;;;;;;;;;;;;;;;16.72;49.57;100859.19;5047081;28;1310;-56
2024/04/03 06:31:29;;;;;;;;;;;;;;;16.64;48.26;100862.44;5052261;28;1111;-56
2024/04/03 06:33:56;;;;;;;;;;;;;;;16.53;47.82;100858.03;5041807;28;1136;-56
2024/04/03 06:36:24;;;;;;;;;;;;;;;16.46;47.24;100868.47;5051205;28;1247;-55
2024/04/03 06:38:50;;;;;;;;;;;;;;;16.36;47.09;100859.09;5037200;28;1040;-56
2024/04/03 06:41:15;;;;;;;;;;;;;;;17.61;48.88;100855.31;5036987;28;1141;-56
2024/04/03 06:43:41;;;;;;;;;;;;;;;16.81;49.26;100866.88;5045757;28;1905;-55
2024/04/03 06:46:07;;;;;;;;;;;;;;;16.68;48.46;100866.31;5040122;28;1088;-57
2024/04/03 06:48:32;;;;;;;;;;;;;;;16.48;48.14;100861.59;5076640;28;1023;-56
2024/04/03 06:50:58;;;;;;;;;;;;;;;16.49;47.70;100870.66;5063630;28;1210;-56
2024/04/03 06:53:23;;;;;;;;;;;;;;;17.49;48.67;100863.88;5076813;28;1043;-56
2024/04/03 06:55:58;;;;;;;;;;;;;;;16.85;49.02;100862.50;5069022;28;2476;-56
2024/04/03 06:58:24;;;;;;;;;;;;;;;16.58;48.58;100858.88;5054841;28;1813;-53
2024/04/03 07:00:49;;;;;;;;;;;;;;;16.91;48.58;100861.41;5047733;28;1211;-53
2024/04/03 07:03:16;;;;;;;;;;;;;;;17.19;49.60;100856.47;5076477;28;1983;-56
2024/04/03 07:05:43;;;;;;;;;;;;;;;16.75;49.35;100863.31;5068874;28;1067;-53
2024/04/03 07:08:09;;;;;;;;;;;;;;;18.89;44.31;100862.19;5025176;28;2282;-56
2024/04/03 07:10:35;;;;;;;;;;;;;;;15.40;55.22;100861.06;5054865;28;1787;-55
2024/04/03 07:13:02;;;;;;;;;;;;;;;16.30;51.43;100870.31;5068339;28;1847;-59
2024/04/03 07:15:29;;;;;;;;;;;;;;;16.49;49.52;100862.41;5056915;28;2157;-56
2024/04/03 07:17:55;;;;;;;;;;;;;;;16.43;48.56;100862.41;5061438;28;2198;-59
2024/04/03 07:20:25;;;;;;;;;;;;;;;16.49;47.54;100867.91;5064833;28;1855;-54
2024/04/03 07:22:53;;;;;;;;;;;;;;;16.45;47.39;100864.88;5063123;28;2149;-53
2024/04/03 07:25:19;;;;;;;;;;;;;;;17.34;49.04;100856.47;5055390;28;1001;-58
2024/04/03 07:27:45;;;;;;;;;;;;;;;16.77;49.05;100869.34;5066701;28;1082;-57
2024/04/03 07:30:10;;;;;;;;;;;;;;;16.57;48.66;100865.44;5062164;28;1056;-55
2024/04/03 07:32:36;;;;;;;;;;;;;;;17.47;48.57;100868.81;5072345;28;1003;-56
2024/04/03 07:35:02;;;;;;;;;;;;;;;16.79;49.08;100871.81;5068592;28;1076;-51
2024/04/03 07:37:27;;;;;;;;;;;;;;;16.52;48.97;100864.63;5069695;28;1210;-54
2024/04/03 07:39:53;;;;;;;;;;;;;;;16.53;47.90;100863.53;5076358;28;988;-56
2024/04/03 07:42:19;;;;;;;;;;;;;;;16.46;47.45;100865.72;5075334;28;1910;-56
2024/04/03 07:44:44;;;;;;;;;;;;;;;17.38;48.04;100863.06;5058427;28;1051;-58
2024/04/03 07:47:10;;;;;;;;;;;;;;;16.98;49.31;100869.41;5047155;28;1239;-58
2024/04/03 07:49:35;;;;;;;;;;;;;;;16.64;48.76;100859.72;5018832;28;1337;-58
2024/04/03 07:52:01;;;;;;;;;;;;;;;17.60;46.00;100859.19;5037579;28;2263;-58
2024/04/03 07:54:26;;;;;;;;;;;;;;;17.37;48.51;100850.41;5045073;28;1852;-57
2024/04/03 07:56:52;;;;;;;;;;;;;;;15.91;53.42;100864.13;5049869;28;1804;-58
2024/04/03 07:59:17;;;;;;;;;;;;;;;16.61;49.65;100857.50;5051452;28;1881;-57
2024/04/03 08:01:44;;;;;;;;;;;;;;;16.56;48.83;100852.84;5052310;28;1931;-56
2024/04/03 08:04:09;;;;;;;;;;;;;;;16.62;47.98;100850.94;5057025;28;2149;-56
2024/04/03 08:06:35;;;;;;;;;;;;;;;16.45;47.54;100851.16;5053528;28;1861;-56
2024/04/03 08:09:00;;;;;;;;;;;;;;;16.45;47.00;100850.34;5062488;28;1356;-48
2024/04/03 08:11:26;;;;;;;;;;;;;;;16.41;46.63;100867.34;5058391;28;1199;-53
2024/04/03 08:13:52;;;;;;;;;;;;;;;17.63;48.25;100858.63;5044140;28;1395;-52
2024/04/03 08:16:18;;;;;;;;;;;;;;;16.80;49.22;100851.50;5052549;28;1359;-55
2024/04/03 08:18:44;;;;;;;;;;;;;;;17.57;48.91;100862.47;5064487;28;1052;-54
2024/04/03 08:21:10;;;;;;;;;;;;;;;17.64;50.09;100852.00;5058777;28;1314;-53
2024/04/03 08:23:36;;;;;;;;;;;;;;;17.01;49.93;100868.84;5056647;28;1967;-53
2024/04/03 08:26:07;;;;;;;;;;;;;;;16.91;48.81;100858.66;5074577;28;1098;-49
2024/04/03 08:28:35;;;;;;;;;;;;;;;16.78;48.36;100860.00;5047233;28;1320;-55
2024/04/03 08:31:00;;;;;;;;;;;;;;;16.65;47.80;100869.59;5067960;28;1170;-56
2024/04/03 08:33:26;;;;;;;;;;;;;;;16.61;47.29;100871.25;5067318;28;1198;-52
2024/04/03 08:35:58;;;;;;;;;;;;;;;16.48;47.06;100858.03;5058462;28;1179;-53
2024/04/03 08:38:24;;;;;;;;;;;;;;;17.44;48.19;100861.94;5060498;28;2592;-56
2024/04/03 08:40:53;;;;;;;;;;;;;;;16.85;48.55;100854.25;5044615;28;1179;-55
2024/04/03 08:43:19;;;;;;;;;;;;;;;16.60;48.21;100861.34;5041665;28;1901;-53
2024/04/03 08:45:44;;;;;;;;;;;;;;;16.65;47.44;100864.13;5063308;28;1167;-55
2024/04/03 08:48:10;;;;;;;;;;;;;;;16.42;47.08;100862.66;5035320;28;1169;-54
2024/04/03 08:50:36;;;;;;;;;;;;;;;16.48;46.60;100861.59;5026404;28;1294;-54
2024/04/03 08:53:01;;;;;;;;;;;;;;;17.32;47.97;100858.69;5048288;28;1238;-55
2024/04/03 08:55:27;;;;;;;;;;;;;;;16.76;48.39;100871.25;5043519;28;1039;-52
2024/04/03 08:57:52;;;;;;;;;;;;;;;16.52;48.18;100862.72;5044039;28;1424;-53
2024/04/03 09:00:18;;;;;;;;;;;;;;;16.55;47.40;100873.16;5074501;28;1087;-48
2024/04/03 09:02:43;;;;;;;;;;;;;;;17.31;47.86;100872.69;5078566;28;1976;-53
2024/04/03 09:05:10;;;;;;;;;;;;;;;17.08;48.82;100872.13;5061070;28;1162;-51
2024/04/03 09:07:35;;;;;;;;;;;;;;;16.68;48.79;100879.22;5060383;28;2318;-51
2024/04/03 09:10:01;;;;;;;;;;;;;;;16.63;47.92;100865.47;5065400;28;1044;-52
2024/04/03 09:12:26;;;;;;;;;;;;;;;16.72;47.39;100861.91;5078442;28;999;-51
2024/04/03 09:15:03;;;;;;;;;;;;;;;17.50;48.19;100848.19;5078580;28;1051;-51
2024/04/03 09:17:29;;;;;;;;;;;;;;;16.89;48.45;100860.88;5065384;28;1155;-52
2024/04/03 09:19:54;;;;;;;;;;;;;;;16.74;47.97;100867.94;5071678;28;1014;-53
2024/04/03 09:22:20;;;;;;;;;;;;;;;16.58;47.29;100863.56;5076515;28;1910;-47
2024/04/03 09:24:46;;;;;;;;;;;;;;;17.75;47.69;100867.41;5065188;28;1193;-49
2024/04/03 09:27:11;;;;;;;;;;;;;;;16.95;48.75;100858.97;5078526;28;1431;-53
2024/04/03 09:29:37;;;;;;;;;;;;;;;16.65;48.49;100866.84;5078350;28;1082;-51
2024/04/03 09:32:03;;;;;;;;;;;;;;;16.70;47.60;100861.34;5078489;28;1007;-49
2024/04/03 09:34:29;;;;;;;;;;;;;;;16.62;47.20;100864.66;5075205;28;908;-53
2024/04/03 09:36:56;;;;;;;;;;;;;;;16.64;46.53;100856.16;5074354;28;1837;-53
2024/04/03 09:39:22;;;;;;;;;;;;;;;17.55;47.28;100854.50;5078664;28;1038;-56
2024/04/03 09:41:50;;;;;;;;;;;;;;;17.01;48.43;100855.09;5078076;28;1480;-57
2024/04/03 09:44:15;;;;;;;;;;;;;;;16.69;48.16;100840.50;5060276;28;1135;-51
2024/04/03 09:46:46;;;;;;;;;;;;;;;16.62;47.53;100842.69;5051288;28;946;-50
2024/04/03 09:49:12;;;;;;;;;;;;;;;16.55;47.18;100833.88;5053467;28;1167;-52
2024/04/03 09:51:38;;;;;;;;;;;;;;;17.43;47.53;100842.97;5072452;28;1170;-52
2024/04/03 09:54:03;;;;;;;;;;;;;;;17.02;48.72;100832.84;5069950;28;1478;-51
2024/04/03 09:56:29;;;;;;;;;;;;;;;16.83;47.91;100835.31;5043646;28;1114;-52
2024/04/03 09:58:54;;;;;;;;;;;;;;;17.02;48.12;100821.84;5045602;28;1331;-52
2024/04/03 10:01:21;;;;;;;;;;;;;;;17.41;48.28;100820.44;5071134;28;1055;-56
2024/04/03 10:03:47;;;;;;;;;;;;;;;16.97;48.40;100819.13;5058072;28;1906;-54
2024/04/03 10:06:13;;;;;;;;;;;;;;;16.83;47.80;100812.50;5039563;28;1384;-54
2024/04/03 10:08:42;;;;;;;;;;;;;;;16.77;47.39;100817.16;5058753;28;2484;-54
2024/04/03 10:11:11;;;;;;;;;;;;;;;16.69;46.64;100818.53;5061536;28;1370;-54
2024/04/03 10:13:39;;;;;;;;;;;;;;;16.63;46.74;100813.31;5057834;28;1031;-54
2024/04/03 10:16:04;;;;;;;;;;;;;;;16.60;46.15;100820.16;5047504;28;1261;-56
2024/04/03 10:18:40;;;;;;;;;;;;;;;16.89;46.66;100811.44;5077478;28;1075;-51
2024/04/03 10:21:09;;;;;;;;;;;;;;;17.22;48.27;100809.19;5073094;28;1157;-48
2024/04/03 10:23:44;;;;;;;;;;;;;;;16.87;47.97;100821.81;5040072;28;1902;-53
2024/04/03 10:26:10;;;;;;;;;;;;;;;16.65;47.52;100811.94;5045455;28;1265;-52
2024/04/03 10:28:36;;;;;;;;;;;;;;;16.60;47.02;100798.19;5055217;28;1092;-54
2024/04/03 10:31:01;;;;;;;;;;;;;;;16.75;47.10;100822.94;5042397;28;1408;-52
2024/04/03 10:33:27;;;;;;;;;;;;;;;17.27;48.14;100814.69;5035425;28;1163;-54
2024/04/03 10:35:53;;;;;;;;;;;;;;;16.84;48.20;100809.47;5043489;28;1139;-53
2024/04/03 10:38:18;;;;;;;;;;;;;;;16.66;47.84;100818.25;5056724;28;2638;-55
2024/04/03 10:40:44;;;;;;;;;;;;;;;16.56;47.28;100814.41;5029435;28;1440;-56
2024/04/03 10:43:09;;;;;;;;;;;;;;;17.64;47.54;100805.25;5040318;28;1914;-46
2024/04/03 10:45:35;;;;;;;;;;;;;;;16.99;48.26;100811.44;5058661;28;1044;-55
2024/04/03 10:48:00;;;;;;;;;;;;;;;16.72;48.12;100803.44;5052148;28;1111;-53
2024/04/03 10:50:26;;;;;;;;;;;;;;;16.70;47.17;100809.19;5073079;28;1064;-49
2024/04/03 10:52:51;;;;;;;;;;;;;;;18.02;47.13;100805.69;5066167;28;1544;-47
2024/04/03 10:55:20;;;;;;;;;;;;;;;17.06;48.69;100805.66;5073251;28;1091;-47
2024/04/03 10:57:48;;;;;;;;;;;;;;;16.92;48.08;100797.16;5069165;28;1117;-48
2024/04/03 11:00:14;;;;;;;;;;;;;;;16.77;47.42;100792.44;5069348;28;1505;-46
2024/04/03 11:02:46;;;;;;;;;;;;;;;16.68;47.13;100786.69;5046315;28;1969;-48
2024/04/03 11:05:12;;;;;;;;;;;;;;;16.63;46.86;100791.34;5070181;28;1075;-49
2024/04/03 11:07:37;;;;;;;;;;;;;;;16.98;47.33;100793.28;5054542;28;1829;-53
2024/04/03 11:10:09;;;;;;;;;;;;;;;17.18;48.04;100791.63;5060463;28;1322;-49
2024/04/03 11:12:35;;;;;;;;;;;;;;;16.75;48.31;100792.72;5076083;28;999;-54
2024/04/03 11:15:01;;;;;;;;;;;;;;;16.70;47.42;100789.16;5045684;28;1019;-48
2024/04/03 11:17:27;;;;;;;;;;;;;;;16.71;46.82;100785.31;5053824;28;1359;-46
2024/04/03 11:19:52;;;;;;;;;;;;;;;17.46;47.23;100784.72;5045487;28;1294;-47
2024/04/03 11:22:18;;;;;;;;;;;;;;;16.89;47.76;100787.53;5063276;28;1976;-48
2024/04/03 11:24:47;;;;;;;;;;;;;;;16.68;47.75;100789.44;5066019;28;1111;-49
2024/04/03 11:27:13;;;;;;;;;;;;;;;16.57;47.14;100791.34;5076281;28;1090;-52
2024/04/03 11:29:41;;;;;;;;;;;;;;;17.44;47.34;100792.41;5066311;28;1115;-54
2024/04/03 11:32:07;;;;;;;;;;;;;;;17.18;47.97;100781.47;5072999;28;1103;-48
2024/04/03 11:34:32;;;;;;;;;;;;;;;16.94;47.82;100781.22;5074977;28;886;-51
2024/04/03 11:36:58;;;;;;;;;;;;;;;16.74;47.45;100780.09;5062709;28;2619;-58
2024/04/03 11:39:28;;;;;;;;;;;;;;;16.57;47.43;100780.34;5075859;28;1063;-56
2024/04/03 11:41:54;;;;;;;;;;;;;;;16.53;46.84;100778.44;5075911;28;1075;-53
2024/04/03 11:44:20;;;;;;;;;;;;;;;16.49;46.42;100769.09;5046957;28;1332;-52
2024/04/03 11:46:45;;;;;;;;;;;;;;;16.50;46.31;100773.50;5049614;28;1203;-51
2024/04/03 11:49:11;;;;;;;;;;;;;;;16.33;46.37;100771.00;5037998;28;1064;-56
2024/04/03 11:51:36;;;;;;;;;;;;;;;16.27;46.52;100770.19;5047664;28;1345;-58
2024/04/03 11:54:03;;;;;;;;;;;;;;;16.22;46.51;100770.16;5042327;28;1508;-50
2024/04/03 11:56:29;;;;;;;;;;;;;;;17.21;47.23;100755.38;5047200;28;1145;-53
2024/04/03 11:58:55;;;;;;;;;;;;;;;16.75;47.79;100765.25;5059492;28;1075;-52
2024/04/03 12:01:20;;;;;;;;;;;;;;;16.62;47.03;100763.09;5068724;28;1186;-51
2024/04/03 12:03:46;;;;;;;;;;;;;;;16.42;47.27;100742.75;5031580;28;1898;-49
2024/04/03 12:06:12;;;;;;;;;;;;;;;17.57;47.28;100760.72;5043341;28;1379;-47
2024/04/03 12:08:37;;;;;;;;;;;;;;;17.08;48.29;100754.84;5049698;28;2106;-46
2024/04/03 12:11:07;;;;;;;;;;;;;;;16.68;48.52;100756.47;5043041;28;1411;-52
2024/04/03 12:13:33;;;;;;;;;;;;;;;16.63;47.71;100759.22;5042148;28;1130;-49
2024/04/03 12:15:59;;;;;;;;;;;;;;;16.58;47.23;100751.81;5042078;28;1447;-49
2024/04/03 12:18:37;;;;;;;;;;;;;;;16.49;47.08;100760.88;5055047;28;1426;-52
2024/04/03 12:21:04;;;;;;;;;;;;;;;16.37;46.85;100756.47;5044597;28;1166;-52
2024/04/03 12:23:30;;;;;;;;;;;;;;;16.31;46.39;100749.31;5041949;28;1985;-50
2024/04/03 12:25:55;;;;;;;;;;;;;;;16.41;46.01;100745.75;5045688;28;1046;-53
2024/04/03 12:28:21;;;;;;;;;;;;;;;16.91;46.67;100737.81;5048722;28;1098;-53
2024/04/03 12:30:46;;;;;;;;;;;;;;;16.85;47.65;100739.72;5045084;28;1056;-53
2024/04/03 12:33:12;;;;;;;;;;;;;;;16.57;47.57;100746.59;5055455;28;1320;-51
2024/04/03 12:35:38;;;;;;;;;;;;;;;16.51;46.84;100742.19;5053609;28;1046;-56
2024/04/03 12:38:03;;;;;;;;;;;;;;;16.42;46.58;100731.78;5051608;28;1777;-58
2024/04/03 12:40:29;;;;;;;;;;;;;;;16.41;46.51;100730.13;5065111;28;1159;-59
2024/04/03 12:42:54;;;;;;;;;;;;;;;16.33;46.22;100738.09;5051239;28;2249;-59
2024/04/03 12:45:20;;;;;;;;;;;;;;;16.26;46.08;100743.84;5071882;28;1115;-56